sensor_id;sensor_type;location;lat;lon;timestamp;pressure;altitude;pressure_sealevel;temperature;humidity
85376;BME280;75780;43.986;22.860;2024-03-23T00:55:50;101390.66;;;2.79;72.94
85376;BME280;75780;43.986;22.860;2024-03-23T00:58:15;101386.00;;;2.64;72.80
85376;BME280;75780;43.986;22.860;2024-03-23T01:00:41;101405.09;;;2.77;73.83
85376;BME280;75780;43.986;22.860;2024-03-23T01:03:06;101388.00;;;2.76;73.08
85376;BME280;75780;43.986;22.860;2024-03-23T01:05:32;101399.91;;;2.74;72.22
85376;BME280;75780;43.986;22.860;2024-03-23T01:07:57;101403.22;;;2.70;73.97
85376;BME280;75780;43.986;22.860;2024-03-23T01:10:22;101372.34;;;2.64;72.38
85376;BME280;75780;43.986;22.860;2024-03-23T01:12:48;101357.81;;;2.61;73.28
85376;BME280;75780;43.986;22.860;2024-03-23T01:15:13;101248.91;;;2.04;72.99
85376;BME280;75780;43.986;22.860;2024-03-23T01:17:39;101399.34;;;2.86;72.18
85376;BME280;75780;43.986;22.860;2024-03-23T01:20:04;101387.91;;;2.71;72.65
85376;BME280;75780;43.986;22.860;2024-03-23T01:22:31;101383.31;;;2.93;72.20
85376;BME280;75780;43.986;22.860;2024-03-23T01:24:57;101373.69;;;2.83;73.25
85376;BME280;75780;43.986;22.860;2024-03-23T01:27:22;101228.41;;;2.01;72.90
85376;BME280;75780;43.986;22.860;2024-03-23T01:29:48;101324.50;;;2.60;71.29
85376;BME280;75780;43.986;22.860;2024-03-23T01:32:13;101370.16;;;2.78;71.66
85376;BME280;75780;43.986;22.860;2024-03-23T01:34:39;101328.69;;;2.56;72.90
85376;BME280;75780;43.986;22.860;2024-03-23T01:37:04;101341.53;;;2.59;71.73
85376;BME280;75780;43.986;22.860;2024-03-23T01:39:30;101383.44;;;2.97;72.57
85376;BME280;75780;43.986;22.860;2024-03-23T01:41:55;101306.19;;;2.79;70.79
85376;BME280;75780;43.986;22.860;2024-03-23T01:44:21;101358.56;;;2.93;71.43
85376;BME280;75780;43.986;22.860;2024-03-23T01:46:46;101301.16;;;2.46;71.28
85376;BME280;75780;43.986;22.860;2024-03-23T01:49:12;101298.63;;;2.48;71.37
85376;BME280;75780;43.986;22.860;2024-03-23T01:51:38;101303.34;;;2.33;72.61
85376;BME280;75780;43.986;22.860;2024-03-23T01:54:05;101310.31;;;2.38;72.26
85376;BME280;75780;43.986;22.860;2024-03-23T01:56:33;101361.38;;;2.68;71.75
85376;BME280;75780;43.986;22.860;2024-03-23T01:59:04;101340.16;;;2.72;70.87
85376;BME280;75780;43.986;22.860;2024-03-23T02:01:30;101329.72;;;2.64;71.40
85376;BME280;75780;43.986;22.860;2024-03-23T02:03:56;101355.31;;;2.64;71.78
85376;BME280;75780;43.986;22.860;2024-03-23T02:06:22;101373.75;;;2.86;72.08
85376;BME280;75780;43.986;22.860;2024-03-23T02:08:49;101382.34;;;2.88;71.43
85376;BME280;75780;43.986;22.860;2024-03-23T02:11:14;101368.31;;;2.73;72.92
85376;BME280;75780;43.986;22.860;2024-03-23T02:13:40;101316.31;;;2.40;72.26
85376;BME280;75780;43.986;22.860;2024-03-23T02:16:06;101318.75;;;2.36;72.34
85376;BME280;75780;43.986;22.860;2024-03-23T02:18:32;101371.56;;;2.66;72.06
85376;BME280;75780;43.986;22.860;2024-03-23T02:20:58;101299.78;;;2.26;72.41
85376;BME280;75780;43.986;22.860;2024-03-23T02:23:23;101309.09;;;2.24;71.86
85376;BME280;75780;43.986;22.860;2024-03-23T02:25:50;101380.63;;;2.54;72.21
85376;BME280;75780;43.986;22.860;2024-03-23T02:28:15;101376.91;;;2.43;73.02
85376;BME280;75780;43.986;22.860;2024-03-23T02:30:41;101294.78;;;1.98;73.71
85376;BME280;75780;43.986;22.860;2024-03-23T02:33:06;101360.66;;;2.39;73.04
85376;BME280;75780;43.986;22.860;2024-03-23T02:35:32;101306.91;;;2.07;74.02
85376;BME280;75780;43.986;22.860;2024-03-23T02:37:57;101374.44;;;2.44;73.73
85376;BME280;75780;43.986;22.860;2024-03-23T02:40:23;101298.13;;;1.95;72.75
85376;BME280;75780;43.986;22.860;2024-03-23T02:42:50;101369.81;;;2.31;74.12
85376;BME280;75780;43.986;22.860;2024-03-23T02:45:15;101358.78;;;2.34;73.07
85376;BME280;75780;43.986;22.860;2024-03-23T02:47:41;101359.75;;;2.37;72.50
85376;BME280;75780;43.986;22.860;2024-03-23T02:50:07;101356.75;;;2.21;74.13
85376;BME280;75780;43.986;22.860;2024-03-23T02:52:32;101354.97;;;2.18;74.22
85376;BME280;75780;43.986;22.860;2024-03-23T02:54:58;101357.59;;;2.21;73.70
85376;BME280;75780;43.986;22.860;2024-03-23T02:57:24;101351.56;;;2.19;73.89
85376;BME280;75780;43.986;22.860;2024-03-23T02:59:49;101334.19;;;2.06;74.80
85376;BME280;75780;43.986;22.860;2024-03-23T03:02:15;101355.00;;;2.20;73.66
85376;BME280;75780;43.986;22.860;2024-03-23T03:04:41;101288.34;;;1.81;74.31
85376;BME280;75780;43.986;22.860;2024-03-23T03:07:07;101338.13;;;1.95;74.31
85376;BME280;75780;43.986;22.860;2024-03-23T03:09:32;101356.81;;;1.92;75.56
85376;BME280;75780;43.986;22.860;2024-03-23T03:11:59;101285.38;;;1.66;74.74
85376;BME280;75780;43.986;22.860;2024-03-23T03:14:24;101350.38;;;2.07;74.16
85376;BME280;75780;43.986;22.860;2024-03-23T03:16:50;101282.09;;;1.70;74.63
85376;BME280;75780;43.986;22.860;2024-03-23T03:19:15;101294.03;;;1.71;74.60
85376;BME280;75780;43.986;22.860;2024-03-23T03:21:42;101356.53;;;2.13;74.03
85376;BME280;75780;43.986;22.860;2024-03-23T03:24:07;101302.78;;;1.79;74.10
85376;BME280;75780;43.986;22.860;2024-03-23T03:26:33;101337.47;;;2.02;74.37
85376;BME280;75780;43.986;22.860;2024-03-23T03:28:58;101359.91;;;2.12;74.00
85376;BME280;75780;43.986;22.860;2024-03-23T03:31:23;101363.16;;;2.07;74.60
85376;BME280;75780;43.986;22.860;2024-03-23T03:33:49;101292.31;;;1.70;74.65
85376;BME280;75780;43.986;22.860;2024-03-23T03:36:16;101358.69;;;1.99;74.29
85376;BME280;75780;43.986;22.860;2024-03-23T03:38:41;101304.91;;;1.64;75.60
85376;BME280;75780;43.986;22.860;2024-03-23T03:41:07;101343.81;;;1.85;75.60
85376;BME280;75780;43.986;22.860;2024-03-23T03:43:32;101347.38;;;1.90;75.12
85376;BME280;75780;43.986;22.860;2024-03-23T03:45:59;101341.66;;;1.98;74.38
85376;BME280;75780;43.986;22.860;2024-03-23T03:48:25;101353.66;;;2.01;75.05
85376;BME280;75780;43.986;22.860;2024-03-23T03:50:52;101342.25;;;1.90;74.44
85376;BME280;75780;43.986;22.860;2024-03-23T03:53:17;101291.91;;;1.56;75.56
85376;BME280;75780;43.986;22.860;2024-03-23T03:55:43;101343.66;;;1.79;74.94
85376;BME280;75780;43.986;22.860;2024-03-23T03:58:08;101287.16;;;1.39;76.22
85376;BME280;75780;43.986;22.860;2024-03-23T04:00:34;101276.22;;;1.43;75.92
85376;BME280;75780;43.986;22.860;2024-03-23T04:03:00;101284.84;;;1.46;75.25
85376;BME280;75780;43.986;22.860;2024-03-23T04:05:25;101337.56;;;1.74;74.62
85376;BME280;75780;43.986;22.860;2024-03-23T04:07:50;101289.53;;;1.32;75.87
85376;BME280;75780;43.986;22.860;2024-03-23T04:10:16;101338.72;;;1.55;76.28
85376;BME280;75780;43.986;22.860;2024-03-23T04:12:43;101368.84;;;1.67;76.07
85376;BME280;75780;43.986;22.860;2024-03-23T04:15:10;101325.97;;;1.57;75.66
85376;BME280;75780;43.986;22.860;2024-03-23T04:17:36;101362.28;;;1.75;75.53
85376;BME280;75780;43.986;22.860;2024-03-23T04:20:02;101336.72;;;1.45;75.76
85376;BME280;75780;43.986;22.860;2024-03-23T04:22:30;101351.63;;;1.60;75.41
85376;BME280;75780;43.986;22.860;2024-03-23T04:24:56;101363.84;;;1.70;76.39
85376;BME280;75780;43.986;22.860;2024-03-23T04:27:25;101344.06;;;1.63;75.99
85376;BME280;75780;43.986;22.860;2024-03-23T04:29:51;101369.22;;;1.79;75.01
85376;BME280;75780;43.986;22.860;2024-03-23T04:32:16;101347.44;;;1.63;76.43
85376;BME280;75780;43.986;22.860;2024-03-23T04:34:43;101306.97;;;1.47;75.09
85376;BME280;75780;43.986;22.860;2024-03-23T04:37:09;101359.09;;;1.82;74.86
85376;BME280;75780;43.986;22.860;2024-03-23T04:39:36;101225.06;;;1.10;74.83
85376;BME280;75780;43.986;22.860;2024-03-23T04:42:02;101317.28;;;1.80;74.39
85376;BME280;75780;43.986;22.860;2024-03-23T04:44:28;101367.34;;;2.34;73.99
85376;BME280;75780;43.986;22.860;2024-03-23T04:46:54;101366.94;;;2.52;73.31
85376;BME280;75780;43.986;22.860;2024-03-23T04:49:19;101338.06;;;2.57;72.12
85376;BME280;75780;43.986;22.860;2024-03-23T04:51:45;101360.88;;;2.83;71.52
85376;BME280;75780;43.986;22.860;2024-03-23T04:54:14;101374.84;;;3.32;71.19
85376;BME280;75780;43.986;22.860;2024-03-23T04:56:40;101364.25;;;3.96;69.49
85376;BME280;75780;43.986;22.860;2024-03-23T04:59:06;101365.56;;;4.67;66.77
85376;BME280;75780;43.986;22.860;2024-03-23T05:01:31;101322.81;;;5.25;64.33
85376;BME280;75780;43.986;22.860;2024-03-23T05:03:57;101375.44;;;6.20;61.16
85376;BME280;75780;43.986;22.860;2024-03-23T05:06:23;101326.63;;;6.26;59.40
85376;BME280;75780;43.986;22.860;2024-03-23T05:08:49;101376.97;;;6.89;58.58
85376;BME280;75780;43.986;22.860;2024-03-23T05:11:15;101369.59;;;7.41;56.12
85376;BME280;75780;43.986;22.860;2024-03-23T05:13:41;101354.41;;;8.06;53.93
85376;BME280;75780;43.986;22.860;2024-03-23T05:16:06;101370.09;;;8.77;51.56
85376;BME280;75780;43.986;22.860;2024-03-23T05:18:32;101364.88;;;9.42;50.10
85376;BME280;75780;43.986;22.860;2024-03-23T05:21:01;101338.72;;;10.07;47.68
85376;BME280;75780;43.986;22.860;2024-03-23T05:23:28;101334.84;;;10.73;45.94
85376;BME280;75780;43.986;22.860;2024-03-23T05:25:53;101358.66;;;11.16;45.19
85376;BME280;75780;43.986;22.860;2024-03-23T05:28:20;101328.03;;;11.50;44.20
85376;BME280;75780;43.986;22.860;2024-03-23T05:30:54;101342.72;;;12.23;43.04
85376;BME280;75780;43.986;22.860;2024-03-23T05:33:21;101332.53;;;12.65;41.88
85376;BME280;75780;43.986;22.860;2024-03-23T05:35:47;101310.41;;;12.92;40.69
85376;BME280;75780;43.986;22.860;2024-03-23T05:38:13;101341.00;;;12.78;41.13
85376;BME280;75780;43.986;22.860;2024-03-23T05:40:39;101337.50;;;13.29;39.92
85376;BME280;75780;43.986;22.860;2024-03-23T05:43:06;101341.78;;;13.78;38.93
85376;BME280;75780;43.986;22.860;2024-03-23T05:45:32;101331.81;;;13.55;39.98
85376;BME280;75780;43.986;22.860;2024-03-23T05:47:58;101268.09;;;11.73;40.99
85376;BME280;75780;43.986;22.860;2024-03-23T05:50:23;101332.97;;;12.93;40.39
85376;BME280;75780;43.986;22.860;2024-03-23T05:52:49;101259.06;;;12.54;40.23
85376;BME280;75780;43.986;22.860;2024-03-23T05:55:15;101287.56;;;13.54;39.79
85376;BME280;75780;43.986;22.860;2024-03-23T05:57:40;101321.41;;;13.54;39.32
85376;BME280;75780;43.986;22.860;2024-03-23T06:00:06;101327.44;;;14.38;38.79
85376;BME280;75780;43.986;22.860;2024-03-23T06:02:41;101329.28;;;14.35;37.55
85376;BME280;75780;43.986;22.860;2024-03-23T06:05:07;101275.69;;;14.58;36.36
85376;BME280;75780;43.986;22.860;2024-03-23T06:07:32;101298.63;;;14.80;37.42
85376;BME280;75780;43.986;22.860;2024-03-23T06:09:58;101328.16;;;12.69;40.61
85376;BME280;75780;43.986;22.860;2024-03-23T06:12:23;101339.59;;;13.57;40.24
85376;BME280;75780;43.986;22.860;2024-03-23T06:14:48;101282.41;;;13.93;38.88
85376;BME280;75780;43.986;22.860;2024-03-23T06:17:14;101335.97;;;14.82;38.26
85376;BME280;75780;43.986;22.860;2024-03-23T06:19:40;101310.59;;;15.19;36.89
85376;BME280;75780;43.986;22.860;2024-03-23T06:22:06;101277.66;;;14.47;38.74
85376;BME280;75780;43.986;22.860;2024-03-23T06:24:32;101277.66;;;15.15;36.76
85376;BME280;75780;43.986;22.860;2024-03-23T06:26:57;101328.66;;;14.60;37.74
85376;BME280;75780;43.986;22.860;2024-03-23T06:29:23;101337.22;;;12.96;42.52
85376;BME280;75780;43.986;22.860;2024-03-23T06:31:54;101294.72;;;11.12;47.04
85376;BME280;75780;43.986;22.860;2024-03-23T06:34:20;101322.84;;;10.62;49.87
85376;BME280;75780;43.986;22.860;2024-03-23T06:36:46;101283.53;;;9.96;51.56
85376;BME280;75780;43.986;22.860;2024-03-23T06:39:12;101275.84;;;9.83;52.47
85376;BME280;75780;43.986;22.860;2024-03-23T06:41:58;101335.94;;;10.45;51.88
85376;BME280;75780;43.986;22.860;2024-03-23T06:44:24;101323.97;;;10.26;51.29
85376;BME280;75780;43.986;22.860;2024-03-23T06:46:49;101287.28;;;9.27;53.95
85376;BME280;75780;43.986;22.860;2024-03-23T06:49:15;101331.19;;;9.52;54.65
85376;BME280;75780;43.986;22.860;2024-03-23T06:51:41;101332.72;;;10.02;53.60
85376;BME280;75780;43.986;22.860;2024-03-23T06:54:06;101278.34;;;9.96;53.76
85376;BME280;75780;43.986;22.860;2024-03-23T06:56:32;101288.69;;;9.99;52.52
85376;BME280;75780;43.986;22.860;2024-03-23T06:58:57;101338.41;;;10.60;52.15
85376;BME280;75780;43.986;22.860;2024-03-23T07:01:23;101273.69;;;10.50;50.93
85376;BME280;75780;43.986;22.860;2024-03-23T07:03:49;101311.53;;;10.70;50.48
85376;BME280;75780;43.986;22.860;2024-03-23T07:06:14;101282.16;;;10.71;50.86
85376;BME280;75780;43.986;22.860;2024-03-23T07:08:40;101333.66;;;11.11;50.33
85376;BME280;75780;43.986;22.860;2024-03-23T07:11:06;101272.34;;;11.02;49.88
85376;BME280;75780;43.986;22.860;2024-03-23T07:13:31;101314.78;;;10.95;50.18
85376;BME280;75780;43.986;22.860;2024-03-23T07:15:56;101318.81;;;11.25;48.60
85376;BME280;75780;43.986;22.860;2024-03-23T07:18:23;101272.16;;;10.29;50.56
85376;BME280;75780;43.986;22.860;2024-03-23T07:20:55;101277.09;;;10.56;49.44
85376;BME280;75780;43.986;22.860;2024-03-23T07:23:24;101301.38;;;10.45;48.87
85376;BME280;75780;43.986;22.860;2024-03-23T07:26:00;101310.53;;;10.85;48.83
85376;BME280;75780;43.986;22.860;2024-03-23T07:28:25;101322.56;;;10.92;48.23
85376;BME280;75780;43.986;22.860;2024-03-23T07:31:08;101287.16;;;10.90;47.80
85376;BME280;75780;43.986;22.860;2024-03-23T07:33:35;101328.59;;;10.96;48.03
85376;BME280;75780;43.986;22.860;2024-03-23T07:36:01;101224.97;;;10.87;48.17
85376;BME280;75780;43.986;22.860;2024-03-23T07:38:27;101316.25;;;11.95;46.60
85376;BME280;75780;43.986;22.860;2024-03-23T07:41:06;101308.84;;;12.29;45.55
85376;BME280;75780;43.986;22.860;2024-03-23T07:43:32;101242.72;;;11.24;47.16
85376;BME280;75780;43.986;22.860;2024-03-23T07:45:58;101295.28;;;12.08;47.08
85376;BME280;75780;43.986;22.860;2024-03-23T07:48:24;101286.16;;;12.40;45.96
85376;BME280;75780;43.986;22.860;2024-03-23T07:51:03;101235.97;;;11.78;46.31
85376;BME280;75780;43.986;22.860;2024-03-23T07:53:30;101293.44;;;12.18;45.50
85376;BME280;75780;43.986;22.860;2024-03-23T07:58:22;101247.09;;;11.89;47.03
85376;BME280;75780;43.986;22.860;2024-03-23T08:00:47;101288.38;;;12.64;45.47
85376;BME280;75780;43.986;22.860;2024-03-23T08:03:13;101227.94;;;11.95;44.75
85376;BME280;75780;43.986;22.860;2024-03-23T08:05:38;101284.22;;;12.52;44.23
85376;BME280;75780;43.986;22.860;2024-03-23T08:08:04;101215.47;;;12.18;43.71
85376;BME280;75780;43.986;22.860;2024-03-23T08:10:29;101275.19;;;12.73;43.35
85376;BME280;75780;43.986;22.860;2024-03-23T08:12:55;101278.25;;;12.47;43.55
85376;BME280;75780;43.986;22.860;2024-03-23T08:15:20;101278.91;;;12.58;44.30
85376;BME280;75780;43.986;22.860;2024-03-23T08:17:45;101278.16;;;12.52;43.06
85376;BME280;75780;43.986;22.860;2024-03-23T08:20:11;101277.63;;;12.82;42.19
85376;BME280;75780;43.986;22.860;2024-03-23T08:22:37;101212.34;;;12.96;40.91
85376;BME280;75780;43.986;22.860;2024-03-23T08:25:02;101275.91;;;13.31;40.53
85376;BME280;75780;43.986;22.860;2024-03-23T08:27:28;101222.56;;;13.08;40.41
85376;BME280;75780;43.986;22.860;2024-03-23T08:29:53;101223.13;;;13.23;40.56
85376;BME280;75780;43.986;22.860;2024-03-23T08:32:18;101206.69;;;13.20;40.19
85376;BME280;75780;43.986;22.860;2024-03-23T08:34:44;101206.84;;;13.54;39.99
85376;BME280;75780;43.986;22.860;2024-03-23T08:37:10;101256.63;;;14.18;38.36
85376;BME280;75780;43.986;22.860;2024-03-23T08:39:35;101253.88;;;14.61;37.83
85376;BME280;75780;43.986;22.860;2024-03-23T08:42:01;101254.00;;;14.18;38.37
85376;BME280;75780;43.986;22.860;2024-03-23T08:44:26;101255.00;;;13.76;38.99
85376;BME280;75780;43.986;22.860;2024-03-23T08:46:52;101239.63;;;14.02;39.91
85376;BME280;75780;43.986;22.860;2024-03-23T08:49:20;101176.84;;;14.11;38.92
85376;BME280;75780;43.986;22.860;2024-03-23T08:51:46;101237.75;;;15.10;37.62
85376;BME280;75780;43.986;22.860;2024-03-23T08:54:11;101218.41;;;15.17;37.58
85376;BME280;75780;43.986;22.860;2024-03-23T08:56:37;101215.34;;;15.03;37.34
85376;BME280;75780;43.986;22.860;2024-03-23T08:59:02;101179.41;;;14.82;36.97
85376;BME280;75780;43.986;22.860;2024-03-23T09:01:27;101218.06;;;14.98;38.53
85376;BME280;75780;43.986;22.860;2024-03-23T09:03:53;101201.88;;;15.18;36.21
85376;BME280;75780;43.986;22.860;2024-03-23T09:06:18;101204.38;;;15.52;36.37
85376;BME280;75780;43.986;22.860;2024-03-23T09:08:44;101203.75;;;15.73;34.29
85376;BME280;75780;43.986;22.860;2024-03-23T09:11:11;101175.84;;;15.44;34.04
85376;BME280;75780;43.986;22.860;2024-03-23T09:13:37;101213.41;;;15.69;34.23
85376;BME280;75780;43.986;22.860;2024-03-23T09:16:04;101154.38;;;15.34;35.14
85376;BME280;75780;43.986;22.860;2024-03-23T09:18:34;101150.00;;;15.35;34.45
85376;BME280;75780;43.986;22.860;2024-03-23T09:21:01;101139.09;;;15.52;35.24
85376;BME280;75780;43.986;22.860;2024-03-23T09:23:26;101169.44;;;15.83;35.36
85376;BME280;75780;43.986;22.860;2024-03-23T09:25:52;101153.94;;;15.77;34.75
85376;BME280;75780;43.986;22.860;2024-03-23T09:28:17;101126.88;;;15.52;36.40
85376;BME280;75780;43.986;22.860;2024-03-23T09:30:43;101116.72;;;15.71;35.96
85376;BME280;75780;43.986;22.860;2024-03-23T09:33:11;101156.16;;;16.16;34.60
85376;BME280;75780;43.986;22.860;2024-03-23T09:35:41;101164.47;;;16.28;34.89
85376;BME280;75780;43.986;22.860;2024-03-23T09:38:10;101159.72;;;16.15;34.25
85376;BME280;75780;43.986;22.860;2024-03-23T09:40:42;101095.06;;;16.18;33.33
85376;BME280;75780;43.986;22.860;2024-03-23T09:43:08;101092.88;;;16.06;34.85
85376;BME280;75780;43.986;22.860;2024-03-23T09:45:38;101136.06;;;16.42;35.07
85376;BME280;75780;43.986;22.860;2024-03-23T09:48:04;101137.44;;;16.54;34.69
85376;BME280;75780;43.986;22.860;2024-03-23T09:50:29;101084.38;;;16.49;34.73
85376;BME280;75780;43.986;22.860;2024-03-23T09:52:55;101099.72;;;16.84;34.25
85376;BME280;75780;43.986;22.860;2024-03-23T09:55:20;101040.88;;;16.71;33.50
85376;BME280;75780;43.986;22.860;2024-03-23T09:57:46;101125.97;;;17.06;33.38
85376;BME280;75780;43.986;22.860;2024-03-23T10:00:12;101120.41;;;17.36;33.47
85376;BME280;75780;43.986;22.860;2024-03-23T10:02:37;101113.69;;;17.53;33.24
85376;BME280;75780;43.986;22.860;2024-03-23T10:05:03;101108.91;;;17.84;32.61
85376;BME280;75780;43.986;22.860;2024-03-23T10:07:29;101063.88;;;17.53;32.56
85376;BME280;75780;43.986;22.860;2024-03-23T10:09:55;101091.16;;;17.69;31.82
85376;BME280;75780;43.986;22.860;2024-03-23T10:12:22;101053.63;;;17.47;32.95
85376;BME280;75780;43.986;22.860;2024-03-23T10:14:47;101078.13;;;17.89;32.41
85376;BME280;75780;43.986;22.860;2024-03-23T10:17:15;101080.97;;;17.83;31.74
85376;BME280;75780;43.986;22.860;2024-03-23T10:19:48;101025.53;;;17.50;32.58
85376;BME280;75780;43.986;22.860;2024-03-23T10:22:20;101059.38;;;17.78;33.39
85376;BME280;75780;43.986;22.860;2024-03-23T10:24:45;101071.09;;;18.09;33.04
85376;BME280;75780;43.986;22.860;2024-03-23T10:27:21;101069.50;;;18.47;31.70
85376;BME280;75780;43.986;22.860;2024-03-23T10:29:50;101007.63;;;17.81;32.20
85376;BME280;75780;43.986;22.860;2024-03-23T10:32:17;101054.06;;;18.40;31.60
85376;BME280;75780;43.986;22.860;2024-03-23T10:34:42;101042.03;;;18.14;32.74
85376;BME280;75780;43.986;22.860;2024-03-23T10:37:08;101035.22;;;18.50;31.71
85376;BME280;75780;43.986;22.860;2024-03-23T10:39:36;100984.84;;;18.42;31.09
85376;BME280;75780;43.986;22.860;2024-03-23T10:42:10;101033.53;;;18.87;31.55
85376;BME280;75780;43.986;22.860;2024-03-23T10:44:37;100980.38;;;18.44;32.35
85376;BME280;75780;43.986;22.860;2024-03-23T10:47:04;101010.41;;;18.95;32.52
85376;BME280;75780;43.986;22.860;2024-03-23T10:49:34;100982.53;;;18.92;31.62
85376;BME280;75780;43.986;22.860;2024-03-23T10:52:01;101004.25;;;19.31;32.07
85376;BME280;75780;43.986;22.860;2024-03-23T10:54:27;100958.16;;;19.07;31.45
85376;BME280;75780;43.986;22.860;2024-03-23T10:57:06;100945.53;;;18.97;31.18
85376;BME280;75780;43.986;22.860;2024-03-23T10:59:34;100988.59;;;19.11;31.56
85376;BME280;75780;43.986;22.860;2024-03-23T11:02:01;100964.25;;;19.08;31.50
85376;BME280;75780;43.986;22.860;2024-03-23T11:04:34;100953.91;;;19.22;31.05
85376;BME280;75780;43.986;22.860;2024-03-23T11:07:00;100927.91;;;18.99;31.08
85376;BME280;75780;43.986;22.860;2024-03-23T11:09:55;100969.28;;;19.29;30.83
85376;BME280;75780;43.986;22.860;2024-03-23T11:17:40;100956.06;;;19.14;31.36
85376;BME280;75780;43.986;22.860;2024-03-23T11:20:06;100949.84;;;19.33;30.17
85376;BME280;75780;43.986;22.860;2024-03-23T11:22:54;100932.94;;;19.56;30.33
85376;BME280;75780;43.986;22.860;2024-03-23T11:25:21;100888.34;;;19.87;29.65
85376;BME280;75780;43.986;22.860;2024-03-23T11:27:50;100921.53;;;19.90;29.74
85376;BME280;75780;43.986;22.860;2024-03-23T11:30:17;100915.91;;;19.80;29.70
85376;BME280;75780;43.986;22.860;2024-03-23T11:32:47;100898.38;;;19.96;29.47
85376;BME280;75780;43.986;22.860;2024-03-23T11:35:34;100909.56;;;20.17;29.15
85376;BME280;75780;43.986;22.860;2024-03-23T11:40:28;100858.50;;;19.88;28.59
85376;BME280;75780;43.986;22.860;2024-03-23T11:43:08;100881.19;;;20.39;28.62
85376;BME280;75780;43.986;22.860;2024-03-23T11:45:47;100874.19;;;20.54;28.08
85376;BME280;75780;43.986;22.860;2024-03-23T11:48:13;100873.34;;;20.69;28.25
85376;BME280;75780;43.986;22.860;2024-03-23T11:50:41;100858.56;;;20.35;28.40
85376;BME280;75780;43.986;22.860;2024-03-23T11:53:15;100864.84;;;20.33;28.23
85376;BME280;75780;43.986;22.860;2024-03-23T11:58:12;100853.13;;;20.38;28.16
85376;BME280;75780;43.986;22.860;2024-03-23T12:00:38;100782.34;;;20.34;28.37
85376;BME280;75780;43.986;22.860;2024-03-23T12:03:05;100840.75;;;20.56;27.85
85376;BME280;75780;43.986;22.860;2024-03-23T12:05:32;100830.25;;;21.00;27.80
85376;BME280;75780;43.986;22.860;2024-03-23T12:10:48;100812.22;;;21.23;27.11
85376;BME280;75780;43.986;22.860;2024-03-23T12:13:18;100754.66;;;21.02;26.47
85376;BME280;75780;43.986;22.860;2024-03-23T12:15:48;100808.81;;;21.21;26.69
85376;BME280;75780;43.986;22.860;2024-03-23T12:18:14;100762.63;;;21.00;26.88
85376;BME280;75780;43.986;22.860;2024-03-23T12:20:40;100786.41;;;21.28;26.81
85376;BME280;75780;43.986;22.860;2024-03-23T12:23:11;100772.75;;;21.50;26.76
85376;BME280;75780;43.986;22.860;2024-03-23T12:25:40;100772.94;;;21.19;26.56
85376;BME280;75780;43.986;22.860;2024-03-23T12:28:06;100780.13;;;21.01;26.91
85376;BME280;75780;43.986;22.860;2024-03-23T12:30:38;100727.03;;;20.93;26.50
85376;BME280;75780;43.986;22.860;2024-03-23T12:33:04;100768.16;;;21.25;26.67
85376;BME280;75780;43.986;22.860;2024-03-23T12:35:29;100765.00;;;21.05;26.90
85376;BME280;75780;43.986;22.860;2024-03-23T12:37:55;100762.97;;;21.38;26.22
85376;BME280;75780;43.986;22.860;2024-03-23T12:40:20;100711.78;;;21.42;26.29
85376;BME280;75780;43.986;22.860;2024-03-23T12:42:46;100751.75;;;21.77;26.04
85376;BME280;75780;43.986;22.860;2024-03-23T12:45:11;100699.50;;;21.41;25.67
85376;BME280;75780;43.986;22.860;2024-03-23T12:47:37;100713.53;;;21.56;26.56
85376;BME280;75780;43.986;22.860;2024-03-23T12:50:02;100692.66;;;21.24;26.05
85376;BME280;75780;43.986;22.860;2024-03-23T12:52:28;100730.06;;;21.72;25.05
85376;BME280;75780;43.986;22.860;2024-03-23T12:54:57;100666.69;;;21.18;25.71
85376;BME280;75780;43.986;22.860;2024-03-23T12:57:24;100676.44;;;21.59;25.45
85376;BME280;75780;43.986;22.860;2024-03-23T12:59:53;100668.25;;;21.49;25.56
85376;BME280;75780;43.986;22.860;2024-03-23T13:02:22;100712.09;;;22.19;24.83
85376;BME280;75780;43.986;22.860;2024-03-23T13:04:52;100715.03;;;22.15;24.77
85376;BME280;75780;43.986;22.860;2024-03-23T13:07:19;100652.34;;;21.91;24.40
85376;BME280;75780;43.986;22.860;2024-03-23T13:09:44;100671.41;;;22.09;24.19
85376;BME280;75780;43.986;22.860;2024-03-23T13:12:10;100641.16;;;21.74;24.46
85376;BME280;75780;43.986;22.860;2024-03-23T13:14:38;100697.94;;;22.20;24.36
85376;BME280;75780;43.986;22.860;2024-03-23T13:17:03;100677.63;;;22.08;24.21
85376;BME280;75780;43.986;22.860;2024-03-23T13:19:29;100671.97;;;21.87;25.07
85376;BME280;75780;43.986;22.860;2024-03-23T13:22:00;100673.44;;;21.91;24.73
85376;BME280;75780;43.986;22.860;2024-03-23T13:24:27;100633.31;;;21.46;25.32
85376;BME280;75780;43.986;22.860;2024-03-23T13:26:54;100669.00;;;22.19;24.68
85376;BME280;75780;43.986;22.860;2024-03-23T13:29:20;100631.88;;;21.95;24.13
85376;BME280;75780;43.986;22.860;2024-03-23T13:31:46;100660.38;;;21.76;24.47
85376;BME280;75780;43.986;22.860;2024-03-23T13:34:12;100667.88;;;21.82;24.74
85376;BME280;75780;43.986;22.860;2024-03-23T13:36:40;100611.44;;;21.58;24.46
85376;BME280;75780;43.986;22.860;2024-03-23T13:39:05;100634.31;;;21.57;24.78
85376;BME280;75780;43.986;22.860;2024-03-23T13:41:40;100630.31;;;21.38;24.82
85376;BME280;75780;43.986;22.860;2024-03-23T13:44:09;100653.06;;;21.53;24.60
85376;BME280;75780;43.986;22.860;2024-03-23T13:46:39;100643.06;;;21.58;24.67
85376;BME280;75780;43.986;22.860;2024-03-23T13:49:07;100640.81;;;21.66;24.59
85376;BME280;75780;43.986;22.860;2024-03-23T13:51:33;100591.91;;;21.33;24.18